This is the latest recevied weather packets stored in our database for station/object KF0ZH. If no packets are shown the sender has not sent any weather packets the latest 1 day(s).
| Time | Temp. | Humidity | Pressure | Rain* | Wind** | Luminosity | Snow |
|---|---|---|---|---|---|---|---|
| 1778115117 | 7.22° C | 60% | 1013.8 hPa | 0 mm | 0 m/s | - | - |
| 1778114518 | 7.22° C | 59% | 1013.9 hPa | 0 mm | 0 m/s | - | - |
| 1778114220 | 7.78° C | 59% | 1013.9 hPa | 0 mm | 0 m/s | - | - |
| 1778113918 | 7.78° C | 58% | 1013.9 hPa | 0 mm | 0 m/s | - | - |
| 1778113618 | 7.78° C | 58% | 1013.8 hPa | 0 mm | 0 m/s | - | - |
| 1778113022 | 7.78° C | 58% | 1013.9 hPa | 0 mm | 0 m/s | - | - |
| 1778111218 | 7.78° C | 59% | 1014 hPa | 0 mm | 0 m/s | - | - |
| 1778110318 | 7.78° C | 59% | 1014.1 hPa | 0 mm | 0 m/s | - | - |
| 1778109719 | 7.78° C | 59% | 1014.2 hPa | 0 mm | 1.79 m/s, 279° | - | - |
| 1778109125 | 7.78° C | 58% | 1014.3 hPa | 0 mm | 3.58 m/s, 316° | - | - |
| 1778106119 | 7.78° C | 59% | 1014.5 hPa | 0 mm | 6.26 m/s, 274° | - | - |
| 1778104319 | 8.33° C | 59% | 1014.7 hPa | 0 mm | 0 m/s | - | - |
| 1778102520 | 7.78° C | 60% | 1015.1 hPa | 0 mm | 0.89 m/s, 2° | - | - |
| 1778101918 | 7.78° C | 60% | 1015.2 hPa | 0 mm | 1.34 m/s, 275° | - | - |
| 1778101618 | 7.78° C | 61% | 1015.2 hPa | 0 mm | 2.68 m/s, 275° | - | - |
| 1778097128 | 6.67° C | 66% | 1015.7 hPa | 0 mm | 2.24 m/s, 246° | - | - |
| 1778095317 | 6.67° C | 65% | 1015.8 hPa | 0 mm | 1.34 m/s, 270° | - | - |
| 1778091719 | 6.11° C | 66% | 1016 hPa | 0 mm | 0.45 m/s, 298° | - | - |
| 1778091118 | 5.56° C | 65% | 1016.1 hPa | 0 mm | 3.13 m/s, 295° | - | - |
| 1778089918 | 5.56° C | 66% | 1016.3 hPa | 0 mm | 2.68 m/s, 309° | - | - |
| 1778088120 | 5.56° C | 65% | 1016.6 hPa | 0 mm | 3.13 m/s, 300° | - | - |
| 1778086317 | 5° C | 66% | 1016.9 hPa | 0 mm | 2.24 m/s, 326° | - | - |
| 1778084518 | 4.44° C | 68% | 1016.8 hPa | 0 mm | 0 m/s | - | - |
| 1778084217 | 4.44° C | 67% | 1016.9 hPa | 0 mm | 1.34 m/s, 275° | - | - |
| 1778083618 | 5° C | 67% | 1016.8 hPa | 0 mm | 0 m/s | - | - |
* Rain latest hour (hover to see other rain measurements)
** Current wind speed in m/s (hover to see current wind gust speed)